sensor_id;sensor_type;location;lat;lon;timestamp;pressure;altitude;pressure_sealevel;temperature;humidity
10992;BME280;5549;47.028;15.514;2023-04-03T00:01:28;96688.19;;;6.38;46.68
10992;BME280;5549;47.028;15.514;2023-04-03T00:03:58;96691.38;;;6.17;46.55
10992;BME280;5549;47.028;15.514;2023-04-03T00:06:26;96694.50;;;6.22;46.65
10992;BME280;5549;47.028;15.514;2023-04-03T00:08:54;96691.69;;;6.25;46.63
10992;BME280;5549;47.028;15.514;2023-04-03T00:11:23;96702.22;;;6.23;47.39
10992;BME280;5549;47.028;15.514;2023-04-03T00:13:51;96698.34;;;6.16;47.09
10992;BME280;5549;47.028;15.514;2023-04-03T00:16:19;96699.09;;;6.18;46.78
10992;BME280;5549;47.028;15.514;2023-04-03T00:18:46;96694.94;;;6.28;46.15
10992;BME280;5549;47.028;15.514;2023-04-03T00:21:14;96696.19;;;6.23;46.59
10992;BME280;5549;47.028;15.514;2023-04-03T00:23:42;96697.66;;;6.27;46.99
10992;BME280;5549;47.028;15.514;2023-04-03T00:26:10;96691.50;;;6.28;46.21
10992;BME280;5549;47.028;15.514;2023-04-03T00:28:39;96692.09;;;6.19;46.63
10992;BME280;5549;47.028;15.514;2023-04-03T00:31:08;96692.84;;;6.21;46.74
10992;BME280;5549;47.028;15.514;2023-04-03T00:33:38;96700.38;;;6.25;46.74
10992;BME280;5549;47.028;15.514;2023-04-03T00:36:07;96701.84;;;6.29;46.02
10992;BME280;5549;47.028;15.514;2023-04-03T00:38:36;96703.16;;;6.49;45.81
10992;BME280;5549;47.028;15.514;2023-04-03T00:41:03;96705.19;;;6.31;46.23
10992;BME280;5549;47.028;15.514;2023-04-03T00:43:31;96699.31;;;6.28;47.13
10992;BME280;5549;47.028;15.514;2023-04-03T00:46:01;96699.91;;;6.19;46.30
10992;BME280;5549;47.028;15.514;2023-04-03T00:48:34;96698.19;;;6.05;46.86
10992;BME280;5549;47.028;15.514;2023-04-03T00:51:06;96700.91;;;6.03;46.88
10992;BME280;5549;47.028;15.514;2023-04-03T00:53:38;96692.69;;;6.09;46.58
10992;BME280;5549;47.028;15.514;2023-04-03T00:56:10;96697.91;;;6.09;47.09
10992;BME280;5549;47.028;15.514;2023-04-03T00:58:46;96698.41;;;6.29;46.58
10992;BME280;5549;47.028;15.514;2023-04-03T01:01:24;96694.50;;;6.22;46.48
10992;BME280;5549;47.028;15.514;2023-04-03T01:03:54;96701.34;;;6.10;46.98
10992;BME280;5549;47.028;15.514;2023-04-03T01:06:26;96701.25;;;6.11;46.46
10992;BME280;5549;47.028;15.514;2023-04-03T01:08:55;96700.91;;;6.03;46.58
10992;BME280;5549;47.028;15.514;2023-04-03T01:11:25;96693.09;;;6.03;46.42
10992;BME280;5549;47.028;15.514;2023-04-03T01:13:53;96702.56;;;6.04;46.83
10992;BME280;5549;47.028;15.514;2023-04-03T01:16:22;96698.28;;;6.03;46.96
10992;BME280;5549;47.028;15.514;2023-04-03T01:18:50;96703.56;;;5.89;47.06
10992;BME280;5549;47.028;15.514;2023-04-03T01:21:56;96712.56;;;5.98;47.65
10992;BME280;5549;47.028;15.514;2023-04-03T01:24:35;96706.69;;;5.94;47.40
10992;BME280;5549;47.028;15.514;2023-04-03T01:27:07;96700.25;;;6.00;46.90
10992;BME280;5549;47.028;15.514;2023-04-03T01:29:40;96709.47;;;6.05;46.88
10992;BME280;5549;47.028;15.514;2023-04-03T01:32:11;96710.25;;;5.79;47.37
10992;BME280;5549;47.028;15.514;2023-04-03T01:34:39;96720.94;;;5.89;47.19
10992;BME280;5549;47.028;15.514;2023-04-03T01:37:09;96719.94;;;5.91;47.43
10992;BME280;5549;47.028;15.514;2023-04-03T01:39:36;96715.72;;;6.03;47.35
10992;BME280;5549;47.028;15.514;2023-04-03T01:42:04;96712.38;;;6.01;46.34
10992;BME280;5549;47.028;15.514;2023-04-03T01:44:34;96707.59;;;6.07;46.41
10992;BME280;5549;47.028;15.514;2023-04-03T01:47:02;96710.84;;;6.11;46.10
10992;BME280;5549;47.028;15.514;2023-04-03T01:49:33;96705.66;;;5.97;46.52
10992;BME280;5549;47.028;15.514;2023-04-03T01:52:03;96699.44;;;5.99;46.20
10992;BME280;5549;47.028;15.514;2023-04-03T01:54:31;96721.31;;;5.83;46.89
10992;BME280;5549;47.028;15.514;2023-04-03T01:56:59;96713.97;;;5.89;46.87
10992;BME280;5549;47.028;15.514;2023-04-03T01:59:27;96709.31;;;5.94;46.53
10992;BME280;5549;47.028;15.514;2023-04-03T02:01:54;96710.81;;;5.70;47.61
10992;BME280;5549;47.028;15.514;2023-04-03T02:04:22;96719.31;;;5.45;47.59
10992;BME280;5549;47.028;15.514;2023-04-03T02:06:52;96719.56;;;5.55;47.50
10992;BME280;5549;47.028;15.514;2023-04-03T02:09:19;96725.91;;;5.51;47.16
10992;BME280;5549;47.028;15.514;2023-04-03T02:11:47;96719.03;;;5.35;47.92
10992;BME280;5549;47.028;15.514;2023-04-03T02:14:14;96718.28;;;5.33;47.89
10992;BME280;5549;47.028;15.514;2023-04-03T02:16:42;96720.94;;;5.18;47.54
10992;BME280;5549;47.028;15.514;2023-04-03T02:19:10;96727.50;;;5.25;47.24
10992;BME280;5549;47.028;15.514;2023-04-03T02:21:38;96721.16;;;5.29;47.39
10992;BME280;5549;47.028;15.514;2023-04-03T02:24:08;96722.94;;;5.28;46.81
10992;BME280;5549;47.028;15.514;2023-04-03T02:26:36;96720.88;;;5.33;46.56
10992;BME280;5549;47.028;15.514;2023-04-03T02:29:06;96726.84;;;5.35;46.32
10992;BME280;5549;47.028;15.514;2023-04-03T02:31:34;96724.44;;;5.32;46.87
10992;BME280;5549;47.028;15.514;2023-04-03T02:34:01;96727.44;;;5.10;47.03
10992;BME280;5549;47.028;15.514;2023-04-03T02:36:30;96729.03;;;5.13;46.44
10992;BME280;5549;47.028;15.514;2023-04-03T02:38:58;96723.31;;;5.22;46.27
10992;BME280;5549;47.028;15.514;2023-04-03T02:41:29;96728.13;;;5.28;45.85
10992;BME280;5549;47.028;15.514;2023-04-03T02:44:01;96724.78;;;5.26;45.82
10992;BME280;5549;47.028;15.514;2023-04-03T02:46:29;96721.53;;;5.37;45.94
10992;BME280;5549;47.028;15.514;2023-04-03T02:48:56;96728.34;;;5.39;45.79
10992;BME280;5549;47.028;15.514;2023-04-03T02:51:24;96726.47;;;5.41;45.98
10992;BME280;5549;47.028;15.514;2023-04-03T02:53:51;96736.13;;;5.39;45.62
10992;BME280;5549;47.028;15.514;2023-04-03T02:56:19;96729.44;;;5.50;45.17
10992;BME280;5549;47.028;15.514;2023-04-03T02:58:50;96724.13;;;5.51;45.43
10992;BME280;5549;47.028;15.514;2023-04-03T03:01:18;96732.06;;;5.50;45.62
10992;BME280;5549;47.028;15.514;2023-04-03T03:03:46;96736.13;;;5.54;45.51
10992;BME280;5549;47.028;15.514;2023-04-03T03:06:16;96725.72;;;5.39;45.77
10992;BME280;5549;47.028;15.514;2023-04-03T03:08:46;96728.44;;;5.38;45.10
10992;BME280;5549;47.028;15.514;2023-04-03T03:11:14;96729.34;;;5.37;45.33
10992;BME280;5549;47.028;15.514;2023-04-03T03:13:45;96734.19;;;5.57;45.31
10992;BME280;5549;47.028;15.514;2023-04-03T03:16:17;96740.22;;;5.58;45.28
10992;BME280;5549;47.028;15.514;2023-04-03T03:18:46;96733.63;;;5.66;44.92
10992;BME280;5549;47.028;15.514;2023-04-03T03:21:14;96738.75;;;5.54;44.98
10992;BME280;5549;47.028;15.514;2023-04-03T03:23:41;96733.25;;;5.58;44.93
10992;BME280;5549;47.028;15.514;2023-04-03T03:26:10;96729.25;;;5.53;44.69
10992;BME280;5549;47.028;15.514;2023-04-03T03:28:39;96731.94;;;5.65;44.71
10992;BME280;5549;47.028;15.514;2023-04-03T03:31:10;96730.53;;;5.74;44.75
10992;BME280;5549;47.028;15.514;2023-04-03T03:33:39;96726.34;;;5.71;44.60
10992;BME280;5549;47.028;15.514;2023-04-03T03:36:07;96720.78;;;5.63;45.26
10992;BME280;5549;47.028;15.514;2023-04-03T03:38:35;96730.75;;;5.57;44.71
10992;BME280;5549;47.028;15.514;2023-04-03T03:41:03;96720.41;;;5.55;44.92
10992;BME280;5549;47.028;15.514;2023-04-03T03:43:30;96725.34;;;5.60;45.36
10992;BME280;5549;47.028;15.514;2023-04-03T03:46:00;96732.97;;;5.48;44.74
10992;BME280;5549;47.028;15.514;2023-04-03T03:48:28;96729.44;;;5.35;45.36
10992;BME280;5549;47.028;15.514;2023-04-03T03:50:59;96729.63;;;5.61;44.98
10992;BME280;5549;47.028;15.514;2023-04-03T03:53:27;96726.47;;;5.56;44.41
10992;BME280;5549;47.028;15.514;2023-04-03T03:55:54;96729.06;;;5.56;44.80
10992;BME280;5549;47.028;15.514;2023-04-03T03:58:22;96736.22;;;5.52;45.02
10992;BME280;5549;47.028;15.514;2023-04-03T04:00:51;96735.97;;;5.42;44.65
10992;BME280;5549;47.028;15.514;2023-04-03T04:03:19;96730.94;;;5.39;44.65
10992;BME280;5549;47.028;15.514;2023-04-03T04:05:47;96730.47;;;5.47;44.74
10992;BME280;5549;47.028;15.514;2023-04-03T04:08:16;96728.97;;;5.43;44.03
10992;BME280;5549;47.028;15.514;2023-04-03T04:10:43;96739.56;;;5.54;44.19
10992;BME280;5549;47.028;15.514;2023-04-03T04:13:11;96735.84;;;5.58;43.93
10992;BME280;5549;47.028;15.514;2023-04-03T04:15:38;96739.69;;;5.53;44.32
10992;BME280;5549;47.028;15.514;2023-04-03T04:18:06;96737.72;;;5.56;44.21
10992;BME280;5549;47.028;15.514;2023-04-03T04:20:36;96734.66;;;5.64;44.46
10992;BME280;5549;47.028;15.514;2023-04-03T04:23:04;96743.00;;;5.69;44.65
10992;BME280;5549;47.028;15.514;2023-04-03T04:25:32;96739.13;;;5.62;44.32
10992;BME280;5549;47.028;15.514;2023-04-03T04:28:00;96747.19;;;5.71;44.17
10992;BME280;5549;47.028;15.514;2023-04-03T04:30:27;96744.97;;;5.65;44.46
10992;BME280;5549;47.028;15.514;2023-04-03T04:32:55;96744.69;;;5.70;44.34
10992;BME280;5549;47.028;15.514;2023-04-03T04:35:22;96750.47;;;5.61;45.37
10992;BME280;5549;47.028;15.514;2023-04-03T04:37:52;96752.13;;;5.62;45.30
10992;BME280;5549;47.028;15.514;2023-04-03T04:40:20;96757.50;;;5.87;44.74
10992;BME280;5549;47.028;15.514;2023-04-03T04:42:51;96758.00;;;5.94;44.33
10992;BME280;5549;47.028;15.514;2023-04-03T04:45:19;96755.84;;;5.86;44.81
10992;BME280;5549;47.028;15.514;2023-04-03T04:47:47;96753.91;;;5.90;44.49
10992;BME280;5549;47.028;15.514;2023-04-03T04:50:18;96753.06;;;5.89;45.46
10992;BME280;5549;47.028;15.514;2023-04-03T04:52:48;96745.78;;;5.80;44.59
10992;BME280;5549;47.028;15.514;2023-04-03T04:55:16;96752.47;;;5.84;45.13
10992;BME280;5549;47.028;15.514;2023-04-03T04:57:46;96753.81;;;5.91;45.72
10992;BME280;5549;47.028;15.514;2023-04-03T05:00:19;96755.34;;;6.08;44.63
10992;BME280;5549;47.028;15.514;2023-04-03T05:02:49;96754.16;;;5.99;44.60
10992;BME280;5549;47.028;15.514;2023-04-03T05:05:17;96746.72;;;5.93;45.35
10992;BME280;5549;47.028;15.514;2023-04-03T05:07:44;96752.13;;;5.90;44.91
10992;BME280;5549;47.028;15.514;2023-04-03T05:10:14;96746.34;;;5.99;44.74
10992;BME280;5549;47.028;15.514;2023-04-03T05:12:43;96748.13;;;5.99;44.18
10992;BME280;5549;47.028;15.514;2023-04-03T05:15:11;96753.63;;;5.94;45.21
10992;BME280;5549;47.028;15.514;2023-04-03T05:17:43;96757.50;;;6.01;44.64
10992;BME280;5549;47.028;15.514;2023-04-03T05:20:11;96758.44;;;6.00;44.94
10992;BME280;5549;47.028;15.514;2023-04-03T05:22:39;96755.47;;;6.06;44.60
10992;BME280;5549;47.028;15.514;2023-04-03T05:25:09;96743.38;;;6.32;44.72
10992;BME280;5549;47.028;15.514;2023-04-03T05:27:37;96748.47;;;6.34;44.01
10992;BME280;5549;47.028;15.514;2023-04-03T05:30:07;96757.16;;;6.34;43.59
10992;BME280;5549;47.028;15.514;2023-04-03T05:32:35;96743.75;;;6.26;44.77
10992;BME280;5549;47.028;15.514;2023-04-03T05:35:05;96757.06;;;6.36;44.58
10992;BME280;5549;47.028;15.514;2023-04-03T05:37:34;96764.97;;;6.61;43.76
10992;BME280;5549;47.028;15.514;2023-04-03T05:40:05;96766.84;;;6.59;43.74
10992;BME280;5549;47.028;15.514;2023-04-03T05:42:36;96775.94;;;6.13;45.06
10992;BME280;5549;47.028;15.514;2023-04-03T05:45:05;96770.25;;;6.06;45.13
10992;BME280;5549;47.028;15.514;2023-04-03T05:47:32;96774.41;;;6.23;44.90
10992;BME280;5549;47.028;15.514;2023-04-03T05:50:00;96769.97;;;6.10;45.82
10992;BME280;5549;47.028;15.514;2023-04-03T05:52:35;96767.06;;;6.15;44.63
10992;BME280;5549;47.028;15.514;2023-04-03T05:55:03;96771.06;;;6.21;44.08
10992;BME280;5549;47.028;15.514;2023-04-03T05:57:31;96771.81;;;6.50;45.05
10992;BME280;5549;47.028;15.514;2023-04-03T06:00:01;96770.78;;;6.52;45.03
10992;BME280;5549;47.028;15.514;2023-04-03T06:02:29;96779.88;;;6.32;44.85
10992;BME280;5549;47.028;15.514;2023-04-03T06:04:59;96778.09;;;6.33;44.80
10992;BME280;5549;47.028;15.514;2023-04-03T06:07:27;96780.13;;;6.42;44.41
10992;BME280;5549;47.028;15.514;2023-04-03T06:09:57;96775.84;;;6.68;45.13
10992;BME280;5549;47.028;15.514;2023-04-03T06:12:25;96776.22;;;6.89;49.64
10992;BME280;5549;47.028;15.514;2023-04-03T06:14:58;96779.22;;;7.22;47.84
10992;BME280;5549;47.028;15.514;2023-04-03T06:17:28;96770.88;;;7.43;47.18
10992;BME280;5549;47.028;15.514;2023-04-03T06:19:56;96768.66;;;7.75;44.81
10992;BME280;5549;47.028;15.514;2023-04-03T06:22:24;96765.25;;;8.11;46.16
10992;BME280;5549;47.028;15.514;2023-04-03T06:24:53;96764.59;;;8.56;46.39
10992;BME280;5549;47.028;15.514;2023-04-03T06:27:22;96762.78;;;9.05;46.64
10992;BME280;5549;47.028;15.514;2023-04-03T06:29:52;96769.59;;;8.23;39.76
10992;BME280;5549;47.028;15.514;2023-04-03T06:32:19;96769.09;;;8.54;44.36
10992;BME280;5549;47.028;15.514;2023-04-03T06:34:49;96779.78;;;8.99;45.14
10992;BME280;5549;47.028;15.514;2023-04-03T06:37:20;96779.63;;;8.89;41.26
10992;BME280;5549;47.028;15.514;2023-04-03T06:39:48;96775.63;;;9.43;47.69
10992;BME280;5549;47.028;15.514;2023-04-03T06:42:16;96776.34;;;9.56;40.42
10992;BME280;5549;47.028;15.514;2023-04-03T06:44:45;96770.28;;;9.89;43.23
10992;BME280;5549;47.028;15.514;2023-04-03T06:47:17;96764.81;;;9.70;38.33
10992;BME280;5549;47.028;15.514;2023-04-03T06:49:45;96763.13;;;9.46;40.12
10992;BME280;5549;47.028;15.514;2023-04-03T06:52:13;96769.88;;;9.38;39.08
10992;BME280;5549;47.028;15.514;2023-04-03T06:54:41;96768.50;;;9.56;40.58
10992;BME280;5549;47.028;15.514;2023-04-03T06:57:08;96765.34;;;9.28;38.90
10992;BME280;5549;47.028;15.514;2023-04-03T06:59:36;96772.47;;;9.15;40.73
10992;BME280;5549;47.028;15.514;2023-04-03T07:02:11;96783.03;;;8.79;39.42
10992;BME280;5549;47.028;15.514;2023-04-03T07:04:38;96777.66;;;9.04;39.51
10992;BME280;5549;47.028;15.514;2023-04-03T07:07:09;96785.47;;;8.93;38.77
10992;BME280;5549;47.028;15.514;2023-04-03T07:09:36;96793.03;;;8.74;38.75
10992;BME280;5549;47.028;15.514;2023-04-03T07:12:05;96798.09;;;8.88;39.70
10992;BME280;5549;47.028;15.514;2023-04-03T07:14:32;96777.44;;;8.59;38.03
10992;BME280;5549;47.028;15.514;2023-04-03T07:17:00;96794.66;;;8.01;39.24
10992;BME280;5549;47.028;15.514;2023-04-03T07:19:29;96784.13;;;7.65;39.07
10992;BME280;5549;47.028;15.514;2023-04-03T07:21:57;96793.56;;;7.55;40.22
10992;BME280;5549;47.028;15.514;2023-04-03T07:24:24;96804.19;;;7.26;39.72
10992;BME280;5549;47.028;15.514;2023-04-03T07:26:53;96806.28;;;7.21;40.32
10992;BME280;5549;47.028;15.514;2023-04-03T07:29:20;96807.00;;;7.23;39.92
10992;BME280;5549;47.028;15.514;2023-04-03T07:31:48;96811.81;;;7.17;40.50
10992;BME280;5549;47.028;15.514;2023-04-03T07:34:16;96809.28;;;7.02;40.05
10992;BME280;5549;47.028;15.514;2023-04-03T07:36:45;96815.00;;;6.95;40.45
10992;BME280;5549;47.028;15.514;2023-04-03T07:39:12;96814.16;;;6.94;41.55
10992;BME280;5549;47.028;15.514;2023-04-03T07:41:42;96814.28;;;6.79;39.88
10992;BME280;5549;47.028;15.514;2023-04-03T07:44:12;96808.47;;;6.88;40.57
10992;BME280;5549;47.028;15.514;2023-04-03T07:46:39;96814.50;;;6.75;40.18
10992;BME280;5549;47.028;15.514;2023-04-03T07:49:10;96806.13;;;6.70;41.49
10992;BME280;5549;47.028;15.514;2023-04-03T07:51:38;96818.13;;;6.73;40.78
10992;BME280;5549;47.028;15.514;2023-04-03T07:54:07;96818.94;;;6.61;39.90
10992;BME280;5549;47.028;15.514;2023-04-03T07:56:35;96819.13;;;6.85;41.08
10992;BME280;5549;47.028;15.514;2023-04-03T07:59:02;96827.69;;;6.87;41.41
10992;BME280;5549;47.028;15.514;2023-04-03T08:01:31;96827.66;;;7.01;40.06
10992;BME280;5549;47.028;15.514;2023-04-03T08:04:02;96816.56;;;6.70;40.45
10992;BME280;5549;47.028;15.514;2023-04-03T08:06:31;96828.28;;;6.78;40.79
10992;BME280;5549;47.028;15.514;2023-04-03T08:09:02;96831.19;;;6.73;40.68
10992;BME280;5549;47.028;15.514;2023-04-03T08:11:31;96834.94;;;6.96;41.27
10992;BME280;5549;47.028;15.514;2023-04-03T08:13:59;96828.09;;;6.81;40.89
10992;BME280;5549;47.028;15.514;2023-04-03T08:16:28;96822.66;;;6.84;41.00
10992;BME280;5549;47.028;15.514;2023-04-03T08:18:56;96826.41;;;6.80;40.04
10992;BME280;5549;47.028;15.514;2023-04-03T08:21:23;96831.19;;;6.73;39.79
10992;BME280;5549;47.028;15.514;2023-04-03T08:23:52;96829.22;;;6.76;40.33
10992;BME280;5549;47.028;15.514;2023-04-03T08:26:21;96834.53;;;6.75;40.63
10992;BME280;5549;47.028;15.514;2023-04-03T08:28:50;96831.22;;;6.86;40.45
10992;BME280;5549;47.028;15.514;2023-04-03T08:31:19;96834.84;;;6.97;40.64
10992;BME280;5549;47.028;15.514;2023-04-03T08:33:49;96838.00;;;7.02;40.08
10992;BME280;5549;47.028;15.514;2023-04-03T08:36:21;96833.94;;;7.11;39.57
10992;BME280;5549;47.028;15.514;2023-04-03T08:38:50;96840.53;;;7.17;40.05
10992;BME280;5549;47.028;15.514;2023-04-03T08:41:29;96838.34;;;7.23;39.16
10992;BME280;5549;47.028;15.514;2023-04-03T08:44:13;96833.47;;;7.31;40.09
10992;BME280;5549;47.028;15.514;2023-04-03T08:47:04;96834.69;;;7.26;39.76
10992;BME280;5549;47.028;15.514;2023-04-03T08:49:42;96823.41;;;7.25;38.63
10992;BME280;5549;47.028;15.514;2023-04-03T08:52:18;96829.91;;;7.32;38.72
10992;BME280;5549;47.028;15.514;2023-04-03T08:54:55;96846.00;;;7.26;39.14
10992;BME280;5549;47.028;15.514;2023-04-03T08:57:31;96840.34;;;7.32;37.27
10992;BME280;5549;47.028;15.514;2023-04-03T09:00:14;96831.53;;;7.08;36.35
10992;BME280;5549;47.028;15.514;2023-04-03T09:02:46;96834.00;;;7.36;37.14
10992;BME280;5549;47.028;15.514;2023-04-03T09:05:19;96840.25;;;7.34;37.38
10992;BME280;5549;47.028;15.514;2023-04-03T09:07:55;96846.59;;;7.17;36.95
10992;BME280;5549;47.028;15.514;2023-04-03T09:10:29;96834.69;;;7.26;36.58
10992;BME280;5549;47.028;15.514;2023-04-03T09:13:03;96841.22;;;7.46;37.12
10992;BME280;5549;47.028;15.514;2023-04-03T09:15:35;96831.78;;;7.30;35.25
10992;BME280;5549;47.028;15.514;2023-04-03T09:18:08;96837.63;;;7.34;35.38
10992;BME280;5549;47.028;15.514;2023-04-03T09:20:46;96839.13;;;7.38;36.02
10992;BME280;5549;47.028;15.514;2023-04-03T09:23:24;96835.66;;;7.37;36.12
10992;BME280;5549;47.028;15.514;2023-04-03T09:26:00;96834.72;;;7.51;36.75
10992;BME280;5549;47.028;15.514;2023-04-03T09:28:32;96826.78;;;7.53;35.69
10992;BME280;5549;47.028;15.514;2023-04-03T09:31:10;96837.56;;;7.86;37.04
10992;BME280;5549;47.028;15.514;2023-04-03T09:33:40;96838.09;;;7.91;35.69
10992;BME280;5549;47.028;15.514;2023-04-03T09:36:10;96835.38;;;7.80;36.33
10992;BME280;5549;47.028;15.514;2023-04-03T09:38:38;96820.81;;;7.89;35.87
10992;BME280;5549;47.028;15.514;2023-04-03T09:41:16;96829.34;;;8.29;36.14
10992;BME280;5549;47.028;15.514;2023-04-03T09:43:54;96829.97;;;8.45;35.26
10992;BME280;5549;47.028;15.514;2023-04-03T09:46:33;96827.78;;;8.39;34.63
10992;BME280;5549;47.028;15.514;2023-04-03T09:49:08;96833.66;;;8.17;34.32
10992;BME280;5549;47.028;15.514;2023-04-03T09:51:38;96828.31;;;8.19;34.30
10992;BME280;5549;47.028;15.514;2023-04-03T09:54:36;96844.41;;;8.25;36.28
10992;BME280;5549;47.028;15.514;2023-04-03T09:57:12;96827.78;;;8.39;35.37
10992;BME280;5549;47.028;15.514;2023-04-03T09:59:47;96830.31;;;8.02;33.97
10992;BME280;5549;47.028;15.514;2023-04-03T10:02:35;96824.66;;;8.09;34.90
10992;BME280;5549;47.028;15.514;2023-04-03T10:05:05;96826.72;;;8.42;36.00
10992;BME280;5549;47.028;15.514;2023-04-03T10:07:51;96811.25;;;8.39;34.79
10992;BME280;5549;47.028;15.514;2023-04-03T10:10:21;96817.56;;;8.60;34.95
10992;BME280;5549;47.028;15.514;2023-04-03T10:13:05;96801.34;;;9.03;35.12
10992;BME280;5549;47.028;15.514;2023-04-03T10:15:40;96802.41;;;9.35;33.50
10992;BME280;5549;47.028;15.514;2023-04-03T10:18:32;96807.00;;;9.67;35.83
10992;BME280;5549;47.028;15.514;2023-04-03T10:21:12;96806.19;;;9.88;33.22
10992;BME280;5549;47.028;15.514;2023-04-03T10:23:46;96801.38;;;9.60;32.61
10992;BME280;5549;47.028;15.514;2023-04-03T10:26:26;96808.31;;;9.15;32.82
10992;BME280;5549;47.028;15.514;2023-04-03T10:29:05;96810.19;;;8.78;33.29
10992;BME280;5549;47.028;15.514;2023-04-03T10:31:43;96811.97;;;8.77;33.99
10992;BME280;5549;47.028;15.514;2023-04-03T10:34:23;96807.66;;;9.00;35.68
10992;BME280;5549;47.028;15.514;2023-04-03T10:36:59;96808.16;;;8.81;34.24
10992;BME280;5549;47.028;15.514;2023-04-03T10:39:36;96805.31;;;9.08;35.14
10992;BME280;5549;47.028;15.514;2023-04-03T10:42:14;96803.94;;;8.91;32.84
10992;BME280;5549;47.028;15.514;2023-04-03T10:45:01;96801.66;;;9.22;35.06
10992;BME280;5549;47.028;15.514;2023-04-03T10:47:40;96793.75;;;9.68;33.36
10992;BME280;5549;47.028;15.514;2023-04-03T10:50:31;96786.72;;;10.13;34.62
10992;BME280;5549;47.028;15.514;2023-04-03T10:53:16;96789.47;;;9.78;32.26
10992;BME280;5549;47.028;15.514;2023-04-03T10:55:53;96788.06;;;10.08;34.38
10992;BME280;5549;47.028;15.514;2023-04-03T10:58:32;96776.22;;;9.57;31.60
10992;BME280;5549;47.028;15.514;2023-04-03T11:01:06;96766.81;;;9.66;32.19
10992;BME280;5549;47.028;15.514;2023-04-03T11:03:39;96784.59;;;9.62;32.39
10992;BME280;5549;47.028;15.514;2023-04-03T11:06:12;96758.69;;;10.14;33.24
10992;BME280;5549;47.028;15.514;2023-04-03T11:08:48;96774.81;;;9.76;33.88
10992;BME280;5549;47.028;15.514;2023-04-03T11:11:22;96776.97;;;9.82;31.79
10992;BME280;5549;47.028;15.514;2023-04-03T11:13:58;96761.34;;;9.91;31.92
10992;BME280;5549;47.028;15.514;2023-04-03T11:16:31;96761.34;;;9.69;33.14
10992;BME280;5549;47.028;15.514;2023-04-03T11:19:05;96773.28;;;9.95;32.54
10992;BME280;5549;47.028;15.514;2023-04-03T11:21:44;96767.28;;;9.49;31.77
10992;BME280;5549;47.028;15.514;2023-04-03T11:24:22;96772.69;;;9.12;32.42
10992;BME280;5549;47.028;15.514;2023-04-03T11:26:52;96771.09;;;9.45;32.70
10992;BME280;5549;47.028;15.514;2023-04-03T11:29:24;96760.59;;;9.33;32.94
10992;BME280;5549;47.028;15.514;2023-04-03T11:32:20;96771.75;;;9.13;31.87
10992;BME280;5549;47.028;15.514;2023-04-03T11:34:57;96770.59;;;9.28;33.47
10992;BME280;5549;47.028;15.514;2023-04-03T11:37:33;96760.63;;;9.89;33.09
10992;BME280;5549;47.028;15.514;2023-04-03T11:40:06;96760.63;;;10.12;32.36
10992;BME280;5549;47.028;15.514;2023-04-03T11:42:37;96757.75;;;10.04;32.01
10992;BME280;5549;47.028;15.514;2023-04-03T11:45:40;96762.66;;;10.42;31.62
10992;BME280;5549;47.028;15.514;2023-04-03T11:48:50;96763.84;;;9.59;31.47
10992;BME280;5549;47.028;15.514;2023-04-03T11:51:42;96771.31;;;9.30;31.49
10992;BME280;5549;47.028;15.514;2023-04-03T11:54:47;96769.44;;;9.66;32.41
10992;BME280;5549;47.028;15.514;2023-04-03T11:58:04;96753.59;;;10.01;32.08
10992;BME280;5549;47.028;15.514;2023-04-03T12:00:58;96761.34;;;10.03;29.85
10992;BME280;5549;47.028;15.514;2023-04-03T12:04:07;96744.16;;;9.98;31.46
10992;BME280;5549;47.028;15.514;2023-04-03T12:07:08;96739.88;;;10.09;30.07
10992;BME280;5549;47.028;15.514;2023-04-03T12:10:18;96732.66;;;10.55;32.14
10992;BME280;5549;47.028;15.514;2023-04-03T12:13:00;96737.97;;;10.22;30.17
10992;BME280;5549;47.028;15.514;2023-04-03T12:15:54;96729.56;;;10.39;30.53
10992;BME280;5549;47.028;15.514;2023-04-03T12:19:00;96722.78;;;10.80;30.34
10992;BME280;5549;47.028;15.514;2023-04-03T12:22:06;96715.69;;;10.59;31.22
10992;BME280;5549;47.028;15.514;2023-04-03T12:24:36;96713.84;;;10.28;30.10
10992;BME280;5549;47.028;15.514;2023-04-03T12:27:25;96708.81;;;10.47;32.65
10992;BME280;5549;47.028;15.514;2023-04-03T12:33:09;96718.31;;;10.59;31.46
10992;BME280;5549;47.028;15.514;2023-04-03T12:35:44;96718.13;;;10.51;30.95
10992;BME280;5549;47.028;15.514;2023-04-03T12:39:02;96716.09;;;10.33;30.44
10992;BME280;5549;47.028;15.514;2023-04-03T12:41:38;96714.34;;;10.22;31.10
10992;BME280;5549;47.028;15.514;2023-04-03T12:44:31;96710.91;;;9.77;30.34
10992;BME280;5549;47.028;15.514;2023-04-03T12:47:26;96728.91;;;9.92;30.59
10992;BME280;5549;47.028;15.514;2023-04-03T12:49:55;96724.63;;;9.69;30.28
10992;BME280;5549;47.028;15.514;2023-04-03T12:52:35;96728.31;;;10.00;31.43
10992;BME280;5549;47.028;15.514;2023-04-03T12:55:14;96720.56;;;9.98;30.58
10992;BME280;5549;47.028;15.514;2023-04-03T12:57:44;96712.47;;;9.90;29.66
10992;BME280;5549;47.028;15.514;2023-04-03T13:00:31;96718.19;;;9.51;29.96
10992;BME280;5549;47.028;15.514;2023-04-03T13:03:04;96717.00;;;9.32;30.27
10992;BME280;5549;47.028;15.514;2023-04-03T13:05:33;96717.56;;;9.25;30.89
10992;BME280;5549;47.028;15.514;2023-04-03T13:08:08;96715.09;;;9.35;31.29
10992;BME280;5549;47.028;15.514;2023-04-03T13:10:54;96709.94;;;9.11;31.73
10992;BME280;5549;47.028;15.514;2023-04-03T13:13:22;96708.53;;;9.29;31.28
10992;BME280;5549;47.028;15.514;2023-04-03T13:15:54;96700.56;;;9.53;32.04
10992;BME280;5549;47.028;15.514;2023-04-03T13:18:31;96702.69;;;9.37;31.43
10992;BME280;5549;47.028;15.514;2023-04-03T13:21:05;96708.03;;;9.24;30.10
10992;BME280;5549;47.028;15.514;2023-04-03T13:23:37;96712.00;;;9.41;30.82
10992;BME280;5549;47.028;15.514;2023-04-03T13:26:06;96708.16;;;9.11;29.93
10992;BME280;5549;47.028;15.514;2023-04-03T13:28:35;96712.47;;;9.46;31.20
10992;BME280;5549;47.028;15.514;2023-04-03T13:31:15;96705.91;;;9.40;30.76
10992;BME280;5549;47.028;15.514;2023-04-03T13:33:56;96699.56;;;9.98;31.27
10992;BME280;5549;47.028;15.514;2023-04-03T13:36:30;96690.78;;;9.66;30.18
10992;BME280;5549;47.028;15.514;2023-04-03T13:39:05;96700.16;;;10.02;31.29
10992;BME280;5549;47.028;15.514;2023-04-03T13:41:36;96690.47;;;10.25;29.37
10992;BME280;5549;47.028;15.514;2023-04-03T13:44:27;96681.81;;;10.56;30.93